Huvudsida
METAR-TAF:

METAR-TAF

Flygplatser :

Chuuk International Airport

Weno, Mikronesien

latitud: 07-28N, longitud: 151-51E, höjd: 3 m

Aktuellt väderrapport

Denna rapport gjordes för 13 minuter sedan, klockan 23:53 UTC
Vind 5 kt varierande vindriktning
Temperatur 31°C
Fuktighet 79%
Tryck 1012 hPa
Sikt: 24.1 km
Få moln på en höjd av 1400 ft
Spridda moln på en höjd av 12000 ft

METAR: PTKK 252353Z VRB05KT 15SM FEW014 SCT120 31/27 A2988 RMK SLP120 8/101 T03060268 10306 20267 51012

Tid: 10:06 (00:06 UTC)

Väderprognos

Denna rapport gjordes för 26 minuter sedan, klockan 23:40 UTC
Prognos gäller från 25 kl. 00 UTC till 25 kl. 24 UTC
Vind 10 kt från ost
Sikt: 10 km
Få moln på en höjd av 1400 ft
Spridda moln på en höjd av 12000 ft
skurar i närheten

TAF: PTKK 242340Z 2500/2524 10010KT P6SM VCSH FEW014 SCT120

Aktuella väderrapporter och prognoser från 4000 flygplatser (METAR- och TAF-rapporter).

De tillgängliga stationerna syns som gula och röda prickar på kartan.

För musen över prickarna för att se namnen på stationerna.

Klicka sedan för att få väderrapporter och prognoser.

För att ändra kartan: Klicka på de gröna knapparna med ett svart kors på för att zooma in; den gröna knappen med ett streck på för att zooma ut; eller på de gröna pilarna för angränsande kartor.


METAR-TAF: